Terminal Aerodrome Forecast
Issued by NWS Nashville, TN

Home | Current Version | Previous Version | Text Only | Print | Product List | Glossary On
Versions: 1 2 3 4 5 6 7 8 9 10 11 12 13 14 15 16 17 18 19 20 21 22 23 24 25 26 27 28 29 30 31 32 33 34 35 36 37 38
000
FTUS44 KOHX 162320
TAFCSV
TAF
KCSV 162320Z 1700/1724 16004KT P6SM BKN080
     FM170600 18009KT 5SM -SHRA OVC070 WS020/19040KT
     FM170900 19010G15KT 3SM -SHRA OVC020 WS020/21040KT
     FM171700 21011G17KT 3SM -SHRA OVC004=

USA.gov is the U.S. government's official web portal to all federal, state and local government web resources and services.